Anson, ME

1:24 PM EDT on August 30, 2016 (GMT -0400)
Camberly Gardens Nursery | | Change Station

Elev 413 ft 44.88 °N, 69.97 °W | Updated 12 minutes ago

Mostly Cloudy
Mostly Cloudy
77.3 °F
Feels Like 79 °F
N
2.0
Wind Variable Wind from SW
Gusts 4.0 mph

Today
High -- | Low -- °F
--% Chance of Precip.
Yesterday
High -- | Low -- °F
Precip. -- in
Pressure 30.16 in
Visibility 10.0 miles
Clouds Mostly Cloudy 7000 ft
Heat Index 79 °F
Dew Point 59 °F
Humidity 54%
Rainfall 0.00 in
Snow Depth Not available.
6:00 AM 7:19 PM
Waning Crescent, 3% visible
METAR KWVL 301656Z AUTO VRB05KT 10SM BKN070 25/12 A3006 RMK AO2 SLP211 T02500117
Pressure 30.16 in
Visibility 10.0 miles
Clouds Mostly Cloudy 7000 ft
Heat Index 79 °F
Dew Point 59 °F
Humidity 54%
Rainfall 0.00 in
Snow Depth Not available.
6:00 AM 7:19 PM
Waning Crescent, 3% visible
METAR KWVL 301656Z AUTO VRB05KT 10SM BKN070 25/12 A3006 RMK AO2 SLP211 T02500117

10-Day Weather Forecast

Almanac

Astronomy

Aug. 30, 2016 Rise Set
Actual Time
Civil Twilight
Nautical Twilight
Astronomical Twilight
Moon
Length of Visible Light
Length of Day
Tomorrow will be .
, % of the Moon is Illuminated

Today's Extremes

State Highs State Lows

Community

WunderPhotos

Upload Photos

1,935,851 photos uploaded!

WunderBlog® & News

Nearby

Air Quality

  Air Quality AQ Index Pollutant
Not available.

Snow Depth

Station Depth Elevation

Earthquake Activity

City Distance Mag. Time & Date
Minimum magnitude displayed is 2.5.

Coastal Water Temperatures

Place Temperature

Stations

Nearby Weather Stations

Station Location Temp. Windchill Dew Point Humidity Wind Precip. Elev Updated Type
                   

Watches & Warnings

There are currently no watches in effect.